createdAt,value
2024-02-17T00:00:39.901Z,95469.00
2024-02-17T00:01:39.958Z,95470.00
2024-02-17T00:02:39.901Z,95469.00
2024-02-17T00:03:40.120Z,95471.00
2024-02-17T00:04:40.068Z,95470.00
2024-02-17T00:05:39.998Z,95467.00
2024-02-17T00:06:40.064Z,95469.00
2024-02-17T00:07:40.049Z,95469.00
2024-02-17T00:08:40.163Z,95470.00
2024-02-17T00:09:40.146Z,95469.00
2024-02-17T00:10:40.142Z,95470.00
2024-02-17T00:11:40.190Z,95471.00
2024-02-17T00:12:40.268Z,95467.00
2024-02-17T00:13:40.390Z,95468.00
2024-02-17T00:14:40.320Z,95468.00
2024-02-17T00:15:40.371Z,95468.00
2024-02-17T00:16:40.378Z,95469.00
2024-02-17T00:17:40.420Z,95467.00
2024-02-17T00:18:40.532Z,95469.00
2024-02-17T00:19:40.599Z,95470.00
2024-02-17T00:20:40.623Z,95469.00
2024-02-17T00:21:40.581Z,95472.00
2024-02-17T00:22:40.593Z,95471.00
2024-02-17T00:23:40.618Z,95472.00
2024-02-17T00:24:40.722Z,95473.00
2024-02-17T00:25:40.686Z,95475.00
2024-02-17T00:26:40.740Z,95476.00
2024-02-17T00:27:40.888Z,95476.00
2024-02-17T00:28:40.796Z,95478.00
2024-02-17T00:29:40.816Z,95481.00
2024-02-17T00:30:40.986Z,95480.00
2024-02-17T00:31:40.990Z,95482.00
2024-02-17T00:32:40.932Z,95482.00
2024-02-17T00:33:41.073Z,95485.00
2024-02-17T00:34:41.150Z,95483.00
2024-02-17T00:35:41.025Z,95487.00
2024-02-17T00:36:41.163Z,95484.00
2024-02-17T00:37:41.125Z,95486.00
2024-02-17T00:38:41.173Z,95488.00
2024-02-17T00:39:41.326Z,95487.00
2024-02-17T00:40:41.224Z,95486.00
2024-02-17T00:41:41.284Z,95487.00
2024-02-17T00:42:41.454Z,95486.00
2024-02-17T00:43:41.398Z,95490.00
2024-02-17T00:44:41.378Z,95489.00
2024-02-17T00:45:41.481Z,95491.00
2024-02-17T00:46:41.513Z,95491.00
2024-02-17T00:47:41.521Z,95492.00
2024-02-17T00:48:41.691Z,95490.00
2024-02-17T00:49:41.728Z,95491.00
2024-02-17T00:50:41.595Z,95490.00
2024-02-17T00:51:41.633Z,95492.00
2024-02-17T00:52:41.661Z,95492.00
2024-02-17T00:53:41.724Z,95492.00
2024-02-17T00:54:41.790Z,95492.00
2024-02-17T00:55:41.828Z,95493.00
2024-02-17T00:56:41.829Z,95491.00
2024-02-17T00:57:41.875Z,95495.00
2024-02-17T00:58:41.886Z,95494.00
2024-02-17T00:59:41.915Z,95498.00
2024-02-17T01:00:42.130Z,95497.00
2024-02-17T01:01:42.068Z,95498.00
2024-02-17T01:02:42.035Z,95498.00
2024-02-17T01:03:42.179Z,95498.00
2024-02-17T01:04:42.155Z,95497.00
2024-02-17T01:05:42.189Z,95496.00
2024-02-17T01:06:42.376Z,95497.00
2024-02-17T01:07:42.283Z,95495.00
2024-02-17T01:08:42.284Z,95498.00
2024-02-17T01:09:42.419Z,95496.00
2024-02-17T01:10:43.230Z,95499.00
2024-02-17T01:11:42.511Z,95499.00
2024-02-17T01:12:42.563Z,95503.00
2024-02-17T01:13:42.494Z,95505.00
2024-02-17T01:14:42.580Z,95504.00
2024-02-17T01:15:42.664Z,95505.00
2024-02-17T01:16:42.663Z,95506.00
2024-02-17T01:17:42.689Z,95506.00
2024-02-17T01:18:42.847Z,95507.00
2024-02-17T01:19:42.887Z,95508.00
2024-02-17T01:20:42.787Z,95508.00
2024-02-17T01:21:42.907Z,95510.00
2024-02-17T01:22:42.886Z,95511.00
2024-02-17T01:23:42.913Z,95511.00
2024-02-17T01:24:43.076Z,95510.00
2024-02-17T01:25:42.997Z,95510.00
2024-02-17T01:26:43.085Z,95510.00
2024-02-17T01:27:43.164Z,95513.00
2024-02-17T01:28:43.093Z,95514.00
2024-02-17T01:29:43.167Z,95515.00
2024-02-17T01:30:43.217Z,95516.00
2024-02-17T01:31:43.233Z,95513.00
2024-02-17T01:32:43.321Z,95515.00
2024-02-17T01:33:43.325Z,95515.00
2024-02-17T01:34:43.355Z,95514.00
2024-02-17T01:35:43.371Z,95516.00
2024-02-17T01:36:43.473Z,95514.00
2024-02-17T01:37:43.434Z,95516.00
2024-02-17T01:38:43.468Z,95514.00
2024-02-17T01:39:43.624Z,95513.00
2024-02-17T01:40:43.577Z,95516.00
2024-02-17T01:41:43.614Z,95515.00
2024-02-17T01:42:43.734Z,95516.00
2024-02-17T01:43:43.677Z,95517.00
2024-02-17T01:44:43.770Z,95517.00
2024-02-17T01:45:43.848Z,95517.00
2024-02-17T01:46:43.791Z,95518.00
2024-02-17T01:47:43.908Z,95518.00
2024-02-17T01:48:44.145Z,95518.00
2024-02-17T01:49:43.958Z,95519.00
2024-02-17T01:50:43.920Z,95520.00
2024-02-17T01:51:43.981Z,95519.00
2024-02-17T01:52:44.018Z,95521.00
2024-02-17T01:53:44.050Z,95519.00
2024-02-17T01:54:44.145Z,95522.00
2024-02-17T01:55:44.135Z,95523.00
2024-02-17T01:56:44.143Z,95524.00
2024-02-17T01:57:46.659Z,95522.00
2024-02-17T01:58:44.255Z,95523.00
2024-02-17T01:59:44.227Z,95525.00
2024-02-17T02:00:44.282Z,95523.00
2024-02-17T02:01:44.248Z,95524.00
2024-02-17T02:02:44.197Z,95524.00
2024-02-17T02:03:44.344Z,95526.00
2024-02-17T02:04:44.421Z,95524.00
2024-02-17T02:05:44.238Z,95526.00
2024-02-17T02:06:44.244Z,95525.00
2024-02-17T02:07:44.288Z,95525.00
2024-02-17T02:08:44.234Z,95523.00
2024-02-17T02:09:44.282Z,95525.00
2024-02-17T02:10:44.289Z,95523.00
2024-02-17T02:11:44.240Z,95523.00
2024-02-17T02:12:44.323Z,95524.00
2024-02-17T02:13:44.232Z,95524.00
2024-02-17T02:14:44.296Z,95525.00
2024-02-17T02:15:53.248Z,95524.00
2024-02-17T02:16:45.221Z,95524.00
2024-02-17T02:17:44.258Z,95526.00
2024-02-17T02:18:44.300Z,95526.00
2024-02-17T02:19:44.338Z,95525.00
2024-02-17T02:20:44.216Z,95527.00
2024-02-17T02:21:44.329Z,95526.00
2024-02-17T02:22:44.235Z,95528.00
2024-02-17T02:23:44.292Z,95527.00
2024-02-17T02:24:44.349Z,95526.00
2024-02-17T02:25:44.256Z,95528.00
2024-02-17T02:26:44.269Z,95527.00
2024-02-17T02:27:44.384Z,95530.00
2024-02-17T02:28:44.267Z,95529.00
2024-02-17T02:29:44.303Z,95528.00
2024-02-17T02:30:44.516Z,95530.00
2024-02-17T02:31:44.334Z,95530.00
2024-02-17T02:32:44.419Z,95530.00
2024-02-17T02:33:44.600Z,95530.00
2024-02-17T02:34:44.545Z,95531.00
2024-02-17T02:35:44.503Z,95533.00
2024-02-17T02:36:44.680Z,95534.00
2024-02-17T02:37:44.578Z,95533.00
2024-02-17T02:38:44.683Z,95536.00
2024-02-17T02:39:44.700Z,95537.00
2024-02-17T02:40:44.751Z,95535.00
2024-02-17T02:41:44.829Z,95537.00
2024-02-17T02:42:44.907Z,95537.00
2024-02-17T02:43:44.834Z,95537.00
2024-02-17T02:44:44.921Z,95537.00
2024-02-17T02:45:45.050Z,95534.00
2024-02-17T02:46:45.049Z,95536.00
2024-02-17T02:47:45.074Z,95536.00
2024-02-17T02:48:45.158Z,95539.00
2024-02-17T02:49:45.209Z,95539.00
2024-02-17T02:50:45.192Z,95540.00
2024-02-17T02:51:45.377Z,95540.00
2024-02-17T02:52:45.366Z,95540.00
2024-02-17T02:53:45.364Z,95542.00
2024-02-17T02:54:45.419Z,95542.00
2024-02-17T02:55:45.464Z,95544.00
2024-02-17T02:56:45.488Z,95543.00
2024-02-17T02:57:45.689Z,95548.00
2024-02-17T02:58:45.606Z,95549.00
2024-02-17T02:59:45.618Z,95549.00
2024-02-17T03:00:45.983Z,95549.00
2024-02-17T03:01:45.791Z,95550.00
2024-02-17T03:02:45.800Z,95551.00
2024-02-17T03:03:45.862Z,95554.00
2024-02-17T03:04:45.894Z,95552.00
2024-02-17T03:05:45.927Z,95553.00
2024-02-17T03:06:45.932Z,95551.00
2024-02-17T03:07:46.015Z,95554.00
2024-02-17T03:08:45.975Z,95553.00
2024-02-17T03:09:46.114Z,95553.00
2024-02-17T03:10:46.132Z,95556.00
2024-02-17T03:11:46.167Z,95554.00
2024-02-17T03:12:46.241Z,95559.00
2024-02-17T03:13:46.169Z,95558.00
2024-02-17T03:14:46.228Z,95559.00
2024-02-17T03:15:46.399Z,95557.00
2024-02-17T03:16:46.380Z,95557.00
2024-02-17T03:17:46.422Z,95558.00
2024-02-17T03:18:46.495Z,95556.00
2024-02-17T03:19:46.496Z,95561.00
2024-02-17T03:20:46.499Z,95560.00
2024-02-17T03:21:46.620Z,95564.00
2024-02-17T03:22:46.622Z,95564.00
2024-02-17T03:23:46.641Z,95564.00
2024-02-17T03:24:46.754Z,95565.00
2024-02-17T03:25:46.735Z,95567.00
2024-02-17T03:26:46.768Z,95567.00
2024-02-17T03:27:46.906Z,95567.00
2024-02-17T03:28:46.854Z,95571.00
2024-02-17T03:29:46.988Z,95569.00
2024-02-17T03:30:47.050Z,95571.00
2024-02-17T03:31:47.060Z,95570.00
2024-02-17T03:32:47.112Z,95574.00
2024-02-17T03:33:47.313Z,95575.00
2024-02-17T03:34:47.433Z,95577.00
2024-02-17T03:35:47.219Z,95578.00
2024-02-17T03:36:47.357Z,95580.00
2024-02-17T03:37:47.326Z,95584.00
2024-02-17T03:38:47.361Z,95586.00
2024-02-17T03:39:47.521Z,95587.00
2024-02-17T03:40:47.439Z,95590.00
2024-02-17T03:41:47.552Z,95592.00
2024-02-17T03:42:47.672Z,95591.00
2024-02-17T03:43:47.599Z,95595.00
2024-02-17T03:44:47.677Z,95597.00
2024-02-17T03:45:47.800Z,95598.00
2024-02-17T03:46:47.781Z,95602.00
2024-02-17T03:47:47.941Z,95604.00
2024-02-17T03:48:48.067Z,95603.00
2024-02-17T03:49:48.062Z,95606.00
2024-02-17T03:50:47.968Z,95607.00
2024-02-17T03:51:48.095Z,95608.00
2024-02-17T03:52:48.069Z,95610.00
2024-02-17T03:53:48.114Z,95612.00
2024-02-17T03:54:48.235Z,95612.00
2024-02-17T03:55:48.247Z,95612.00
2024-02-17T03:56:48.309Z,95613.00
2024-02-17T03:57:48.392Z,95615.00
2024-02-17T03:58:48.449Z,95616.00
2024-02-17T03:59:48.502Z,95616.00
2024-02-17T04:00:48.637Z,95616.00
2024-02-17T04:01:48.658Z,95620.00
2024-02-17T04:02:48.712Z,95622.00
2024-02-17T04:03:48.798Z,95622.00
2024-02-17T04:04:48.775Z,95625.00
2024-02-17T04:05:48.862Z,95628.00
2024-02-17T04:06:49.083Z,95629.00
2024-02-17T04:07:49.142Z,95632.00
2024-02-17T04:08:48.991Z,95633.00
2024-02-17T04:09:49.158Z,95636.00
2024-02-17T04:10:49.269Z,95637.00
2024-02-17T04:11:49.209Z,95637.00
2024-02-17T04:12:49.253Z,95639.00
2024-02-17T04:13:49.276Z,95639.00
2024-02-17T04:14:49.402Z,95641.00
2024-02-17T04:15:49.474Z,95642.00
2024-02-17T04:16:49.422Z,95644.00
2024-02-17T04:17:49.484Z,95643.00
2024-02-17T04:18:49.695Z,95645.00
2024-02-17T04:19:49.889Z,95646.00
2024-02-17T04:20:49.620Z,95648.00
2024-02-17T04:21:49.715Z,95651.00
2024-02-17T04:22:49.769Z,95651.00
2024-02-17T04:23:49.827Z,95652.00
2024-02-17T04:24:49.896Z,95651.00
2024-02-17T04:25:49.897Z,95656.00
2024-02-17T04:26:50.072Z,95658.00
2024-02-17T04:27:50.294Z,95659.00
2024-02-17T04:28:50.119Z,95659.00
2024-02-17T04:29:50.277Z,95660.00
2024-02-17T04:30:50.257Z,95663.00
2024-02-17T04:31:50.276Z,95666.00
2024-02-17T04:32:50.332Z,95664.00
2024-02-17T04:33:50.588Z,95666.00
2024-02-17T04:34:50.616Z,95667.00
2024-02-17T04:35:50.469Z,95669.00
2024-02-17T04:36:50.547Z,95672.00
2024-02-17T04:37:50.633Z,95673.00
2024-02-17T04:38:50.674Z,95674.00
2024-02-17T04:39:50.721Z,95675.00
2024-02-17T04:40:50.764Z,95675.00
2024-02-17T04:41:50.825Z,95675.00
2024-02-17T04:42:58.402Z,95676.00
2024-02-17T04:43:58.203Z,95678.00
2024-02-17T04:44:58.129Z,95681.00
2024-02-17T04:45:58.117Z,95682.00
2024-02-17T04:46:58.158Z,95680.00
2024-02-17T04:47:58.166Z,95683.00
2024-02-17T04:48:58.253Z,95685.00
2024-02-17T04:49:58.144Z,95685.00
2024-02-17T04:50:58.128Z,95686.00
2024-02-17T04:51:58.137Z,95688.00
2024-02-17T04:52:58.136Z,95689.00
2024-02-17T04:53:58.142Z,95690.00
2024-02-17T04:54:58.113Z,95694.00
2024-02-17T04:55:58.119Z,95692.00
2024-02-17T04:56:58.190Z,95694.00
2024-02-17T04:57:58.123Z,95694.00
2024-02-17T04:58:58.148Z,95697.00
2024-02-17T04:59:58.153Z,95698.00
2024-02-17T05:00:58.599Z,95699.00
2024-02-17T05:01:58.152Z,95698.00
2024-02-17T05:02:58.130Z,95702.00
2024-02-17T05:03:58.284Z,95703.00
2024-02-17T05:04:58.222Z,95700.00
2024-02-17T05:05:58.292Z,95702.00
2024-02-17T05:06:58.379Z,95701.00
2024-02-17T05:07:58.391Z,95703.00
2024-02-17T05:08:58.436Z,95705.00
2024-02-17T05:09:58.534Z,95706.00
2024-02-17T05:10:58.579Z,95707.00
2024-02-17T05:11:58.577Z,95710.00
2024-02-17T05:12:58.894Z,95710.00
2024-02-17T05:13:58.746Z,95711.00
2024-02-17T05:14:58.815Z,95712.00
2024-02-17T05:15:58.811Z,95714.00
2024-02-17T05:16:58.887Z,95714.00
2024-02-17T05:17:58.963Z,95717.00
2024-02-17T05:18:58.990Z,95716.00
2024-02-17T05:19:59.069Z,95719.00
2024-02-17T05:20:59.176Z,95720.00
2024-02-17T05:21:59.191Z,95721.00
2024-02-17T05:22:59.209Z,95721.00
2024-02-17T05:23:59.273Z,95723.00
2024-02-17T05:24:59.363Z,95724.00
2024-02-17T05:25:59.385Z,95727.00
2024-02-17T05:26:59.445Z,95724.00
2024-02-17T05:27:59.539Z,95727.00
2024-02-17T05:28:59.581Z,95727.00
2024-02-17T05:29:59.642Z,95730.00
2024-02-17T05:30:59.716Z,95729.00
2024-02-17T05:31:59.899Z,95731.00
2024-02-17T05:32:59.831Z,95733.00
2024-02-17T05:33:59.989Z,95737.00
2024-02-17T05:35:00.511Z,95741.00
2024-02-17T05:35:59.956Z,95742.00
2024-02-17T05:37:00.016Z,95744.00
2024-02-17T05:38:00.113Z,95744.00
2024-02-17T05:39:00.136Z,95744.00
2024-02-17T05:40:00.222Z,95747.00
2024-02-17T05:41:00.273Z,95745.00
2024-02-17T05:42:00.272Z,95746.00
2024-02-17T05:43:00.427Z,95748.00
2024-02-17T05:44:00.444Z,95750.00
2024-02-17T05:45:00.479Z,95748.00
2024-02-17T05:46:00.520Z,95749.00
2024-02-17T05:47:00.631Z,95750.00
2024-02-17T05:48:00.869Z,95750.00
2024-02-17T05:49:00.938Z,95752.00
2024-02-17T05:50:00.928Z,95753.00
2024-02-17T05:51:00.830Z,95754.00
2024-02-17T05:52:00.910Z,95757.00
2024-02-17T05:53:00.947Z,95759.00
2024-02-17T05:54:01.019Z,95761.00
2024-02-17T05:55:01.215Z,95762.00
2024-02-17T05:56:01.130Z,95764.00
2024-02-17T05:57:01.168Z,95766.00
2024-02-17T05:58:01.208Z,95767.00
2024-02-17T05:59:01.265Z,95766.00
2024-02-17T06:00:01.315Z,95769.00
2024-02-17T06:01:01.555Z,95769.00
2024-02-17T06:02:01.431Z,95771.00
2024-02-17T06:03:01.490Z,95773.00
2024-02-17T06:04:01.603Z,95775.00
2024-02-17T06:05:01.941Z,95776.00
2024-02-17T06:06:01.663Z,95778.00
2024-02-17T06:07:01.765Z,95780.00
2024-02-17T06:08:01.806Z,95779.00
2024-02-17T06:09:01.892Z,95785.00
2024-02-17T06:10:01.882Z,95786.00
2024-02-17T06:11:02.033Z,95787.00
2024-02-17T06:12:02.043Z,95790.00
2024-02-17T06:13:02.100Z,95791.00
2024-02-17T06:14:02.142Z,95791.00
2024-02-17T06:15:02.182Z,95790.00
2024-02-17T06:16:02.247Z,95792.00
2024-02-17T06:17:02.304Z,95793.00
2024-02-17T06:18:02.466Z,95795.00
2024-02-17T06:19:02.581Z,95796.00
2024-02-17T06:20:02.526Z,95798.00
2024-02-17T06:21:02.526Z,95798.00
2024-02-17T06:22:02.651Z,95800.00
2024-02-17T06:23:02.713Z,95802.00
2024-02-17T06:24:12.435Z,95804.00
2024-02-17T06:25:12.395Z,95806.00
2024-02-17T06:26:12.374Z,95807.00
2024-02-17T06:27:12.444Z,95809.00
2024-02-17T06:28:12.387Z,95811.00
2024-02-17T06:29:12.403Z,95811.00
2024-02-17T06:31:06.277Z,95812.00
2024-02-17T06:32:06.242Z,95812.00
2024-02-17T06:33:06.309Z,95814.00
2024-02-17T06:34:06.345Z,95815.00
2024-02-17T06:35:06.338Z,95814.00
2024-02-17T06:36:06.292Z,95817.00
2024-02-17T06:37:06.359Z,95818.00
2024-02-17T06:38:06.267Z,95819.00
2024-02-17T06:39:06.283Z,95821.00
2024-02-17T06:40:06.280Z,95824.00
2024-02-17T06:41:06.260Z,95825.00
2024-02-17T06:42:06.270Z,95827.00
2024-02-17T06:43:06.281Z,95828.00
2024-02-17T06:44:06.269Z,95829.00
2024-02-17T06:45:06.308Z,95833.00
2024-02-17T06:46:06.289Z,95832.00
2024-02-17T06:47:06.248Z,95834.00
2024-02-17T06:48:06.312Z,95836.00
2024-02-17T06:49:06.317Z,95840.00
2024-02-17T06:50:06.328Z,95841.00
2024-02-17T06:51:06.329Z,95844.00
2024-02-17T06:52:06.265Z,95842.00
2024-02-17T06:53:06.325Z,95843.00
2024-02-17T06:54:06.436Z,95845.00
2024-02-17T06:55:06.433Z,95844.00
2024-02-17T06:56:06.512Z,95846.00
2024-02-17T06:57:06.607Z,95847.00
2024-02-17T06:58:06.630Z,95848.00
2024-02-17T06:59:06.680Z,95850.00
2024-02-17T07:00:06.789Z,95851.00
2024-02-17T07:01:06.852Z,95852.00
2024-02-17T07:02:06.894Z,95853.00
2024-02-17T07:03:06.933Z,95857.00
2024-02-17T07:04:07.091Z,95859.00
2024-02-17T07:05:07.088Z,95856.00
2024-02-17T07:06:07.344Z,95859.00
2024-02-17T07:07:07.198Z,95861.00
2024-02-17T07:08:07.210Z,95863.00
2024-02-17T07:09:07.348Z,95862.00
2024-02-17T07:10:07.377Z,95864.00
2024-02-17T07:11:07.437Z,95866.00
2024-02-17T07:12:07.599Z,95866.00
2024-02-17T07:13:07.535Z,95870.00
2024-02-17T07:14:07.559Z,95868.00
2024-02-17T07:15:07.684Z,95869.00
2024-02-17T07:16:07.783Z,95869.00
2024-02-17T07:17:07.754Z,95871.00
2024-02-17T07:18:07.933Z,95871.00
2024-02-17T07:19:07.948Z,95873.00
2024-02-17T07:20:08.121Z,95873.00
2024-02-17T07:21:08.050Z,95873.00
2024-02-17T07:22:08.025Z,95878.00
2024-02-17T07:23:08.143Z,95879.00
2024-02-17T07:24:08.218Z,95879.00
2024-02-17T07:25:08.245Z,95881.00
2024-02-17T07:26:08.314Z,95882.00
2024-02-17T07:27:08.388Z,95886.00
2024-02-17T07:28:08.415Z,95887.00
2024-02-17T07:29:08.465Z,95887.00
2024-02-17T07:30:08.619Z,95887.00
2024-02-17T07:31:08.597Z,95889.00
2024-02-17T07:32:08.684Z,95890.00
2024-02-17T07:33:08.792Z,95890.00
2024-02-17T07:34:08.858Z,95890.00
2024-02-17T07:35:08.934Z,95892.00
2024-02-17T07:36:08.981Z,95891.00
2024-02-17T07:37:08.954Z,95893.00
2024-02-17T07:38:09.020Z,95895.00
2024-02-17T07:39:09.160Z,95899.00
2024-02-17T07:40:09.151Z,95900.00
2024-02-17T07:41:09.199Z,95904.00
2024-02-17T07:42:09.317Z,95905.00
2024-02-17T07:43:09.318Z,95909.00
2024-02-17T07:44:09.362Z,95908.00
2024-02-17T07:45:09.546Z,95908.00
2024-02-17T07:46:09.477Z,95907.00
2024-02-17T07:47:09.552Z,95904.00
2024-02-17T07:48:09.728Z,95906.00
2024-02-17T07:49:09.727Z,95908.00
2024-02-17T07:50:09.947Z,95911.00
2024-02-17T07:51:09.837Z,95912.00
2024-02-17T07:52:09.836Z,95915.00
2024-02-17T07:53:09.917Z,95914.00
2024-02-17T07:54:10.016Z,95916.00
2024-02-17T07:55:10.071Z,95917.00
2024-02-17T07:56:10.085Z,95920.00
2024-02-17T07:57:10.185Z,95919.00
2024-02-17T07:58:10.213Z,95920.00
2024-02-17T07:59:10.276Z,95922.00
2024-02-17T08:00:11.698Z,95921.00
2024-02-17T08:01:10.479Z,95925.00
2024-02-17T08:02:10.343Z,95926.00
2024-02-17T08:03:10.398Z,95924.00
2024-02-17T08:04:10.462Z,95925.00
2024-02-17T08:05:10.439Z,95927.00
2024-02-17T08:06:10.477Z,95927.00
2024-02-17T08:07:10.437Z,95929.00
2024-02-17T08:08:10.345Z,95932.00
2024-02-17T08:09:10.377Z,95931.00
2024-02-17T08:10:10.346Z,95932.00
2024-02-17T08:11:10.433Z,95934.00
2024-02-17T08:12:10.377Z,95933.00
2024-02-17T08:13:10.354Z,95932.00
2024-02-17T08:14:10.367Z,95933.00
2024-02-17T08:15:10.409Z,95933.00
2024-02-17T08:16:10.357Z,95930.00
2024-02-17T08:17:10.319Z,95930.00
2024-02-17T08:18:10.513Z,95931.00
2024-02-17T08:19:10.568Z,95931.00
2024-02-17T08:20:10.643Z,95935.00
2024-02-17T08:21:10.411Z,95932.00
2024-02-17T08:22:10.354Z,95933.00
2024-02-17T08:23:10.348Z,95933.00
2024-02-17T08:24:10.392Z,95932.00
2024-02-17T08:25:10.532Z,95935.00
2024-02-17T08:26:10.379Z,95935.00
2024-02-17T08:27:10.455Z,95934.00
2024-02-17T08:28:10.488Z,95937.00
2024-02-17T08:29:10.390Z,95940.00
2024-02-17T08:30:10.418Z,95941.00
2024-02-17T08:31:10.349Z,95940.00
2024-02-17T08:32:10.404Z,95941.00
2024-02-17T08:33:10.502Z,95942.00
2024-02-17T08:34:10.555Z,95939.00
2024-02-17T08:35:10.539Z,95940.00
2024-02-17T08:36:10.440Z,95939.00
2024-02-17T08:37:10.393Z,95940.00
2024-02-17T08:38:10.342Z,95939.00
2024-02-17T08:39:10.453Z,95943.00
2024-02-17T08:40:10.412Z,95942.00
2024-02-17T08:41:10.371Z,95944.00
2024-02-17T08:42:10.396Z,95946.00
2024-02-17T08:43:10.384Z,95944.00
2024-02-17T08:44:13.229Z,95946.00
2024-02-17T08:45:10.442Z,95950.00
2024-02-17T08:46:10.358Z,95947.00
2024-02-17T08:47:10.402Z,95950.00
2024-02-17T08:48:10.483Z,95951.00
2024-02-17T08:49:10.491Z,95949.00
2024-02-17T08:50:10.381Z,95951.00
2024-02-17T08:51:10.531Z,95952.00
2024-02-17T08:52:10.390Z,95952.00
2024-02-17T08:53:10.426Z,95953.00
2024-02-17T08:54:10.434Z,95955.00
2024-02-17T08:55:10.386Z,95956.00
2024-02-17T08:56:10.424Z,95955.00
2024-02-17T08:57:10.419Z,95955.00
2024-02-17T08:58:10.392Z,95957.00
2024-02-17T08:59:10.390Z,95956.00
2024-02-17T09:00:10.428Z,95958.00
2024-02-17T09:01:10.512Z,95960.00
2024-02-17T09:02:10.421Z,95961.00
2024-02-17T09:03:10.445Z,95963.00
2024-02-17T09:04:10.545Z,95964.00
2024-02-17T09:05:10.400Z,95963.00
2024-02-17T09:06:10.389Z,95966.00
2024-02-17T09:07:10.478Z,95968.00
2024-02-17T09:08:10.409Z,95970.00
2024-02-17T09:09:10.471Z,95970.00
2024-02-17T09:10:10.406Z,95973.00
2024-02-17T09:11:10.440Z,95971.00
2024-02-17T09:12:10.540Z,95976.00
2024-02-17T09:13:10.444Z,95976.00
2024-02-17T09:14:10.396Z,95975.00
2024-02-17T09:15:10.459Z,95974.00
2024-02-17T09:16:10.408Z,95973.00
2024-02-17T09:17:10.468Z,95974.00
2024-02-17T09:18:10.546Z,95973.00
2024-02-17T09:19:10.591Z,95973.00
2024-02-17T09:20:10.686Z,95974.00
2024-02-17T09:21:10.654Z,95973.00
2024-02-17T09:22:10.665Z,95973.00
2024-02-17T09:23:10.661Z,95972.00
2024-02-17T09:24:10.796Z,95973.00
2024-02-17T09:25:10.796Z,95974.00
2024-02-17T09:26:10.780Z,95976.00
2024-02-17T09:27:10.906Z,95977.00
2024-02-17T09:28:10.874Z,95979.00
2024-02-17T09:29:10.903Z,95980.00
2024-02-17T09:30:11.014Z,95981.00
2024-02-17T09:31:10.975Z,95986.00
2024-02-17T09:32:11.056Z,95987.00
2024-02-17T09:33:11.103Z,95987.00
2024-02-17T09:34:11.240Z,95988.00
2024-02-17T09:35:11.350Z,95990.00
2024-02-17T09:36:11.198Z,95989.00
2024-02-17T09:37:11.215Z,95990.00
2024-02-17T09:38:11.239Z,95989.00
2024-02-17T09:39:11.320Z,95990.00
2024-02-17T09:40:11.287Z,95990.00
2024-02-17T09:41:11.339Z,95991.00
2024-02-17T09:42:11.367Z,95992.00
2024-02-17T09:43:11.367Z,95993.00
2024-02-17T09:44:11.399Z,95994.00
2024-02-17T09:45:11.469Z,95993.00
2024-02-17T09:46:11.478Z,95993.00
2024-02-17T09:47:11.553Z,95994.00
2024-02-17T09:48:11.669Z,95995.00
2024-02-17T09:49:14.304Z,95998.00
2024-02-17T09:50:11.672Z,95999.00
2024-02-17T09:51:11.619Z,96001.00
2024-02-17T09:52:11.578Z,96002.00
2024-02-17T09:53:11.571Z,96004.00
2024-02-17T09:54:11.633Z,96003.00
2024-02-17T09:55:11.600Z,96002.00
2024-02-17T09:56:11.576Z,96002.00
2024-02-17T09:57:11.622Z,96006.00
2024-02-17T09:58:11.595Z,96006.00
2024-02-17T09:59:11.617Z,96006.00
2024-02-17T10:00:11.627Z,96008.00
2024-02-17T10:01:11.700Z,96008.00
2024-02-17T10:02:11.591Z,96011.00
2024-02-17T10:03:11.714Z,96012.00
2024-02-17T10:04:11.627Z,96013.00
2024-02-17T10:05:11.706Z,96012.00
2024-02-17T10:06:11.789Z,96013.00
2024-02-17T10:07:11.615Z,96013.00
2024-02-17T10:08:11.600Z,96014.00
2024-02-17T10:09:11.599Z,96015.00
2024-02-17T10:10:11.606Z,96016.00
2024-02-17T10:11:11.565Z,96020.00
2024-02-17T10:12:11.667Z,96021.00
2024-02-17T10:13:11.612Z,96025.00
2024-02-17T10:14:11.606Z,96024.00
2024-02-17T10:15:11.630Z,96023.00
2024-02-17T10:16:11.627Z,96024.00
2024-02-17T10:17:11.583Z,96025.00
2024-02-17T10:18:11.699Z,96023.00
2024-02-17T10:19:11.666Z,96027.00
2024-02-17T10:20:11.712Z,96026.00
2024-02-17T10:21:11.665Z,96027.00
2024-02-17T10:22:11.592Z,96028.00
2024-02-17T10:23:11.590Z,96027.00
2024-02-17T10:24:11.614Z,96030.00
2024-02-17T10:25:11.658Z,96030.00
2024-02-17T10:26:11.767Z,96031.00
2024-02-17T10:27:11.602Z,96033.00
2024-02-17T10:28:11.590Z,96034.00
2024-02-17T10:29:11.630Z,96035.00
2024-02-17T10:30:11.623Z,96032.00
2024-02-17T10:31:11.664Z,96034.00
2024-02-17T10:32:11.633Z,96031.00
2024-02-17T10:33:11.889Z,96032.00
2024-02-17T10:34:11.680Z,96031.00
2024-02-17T10:35:11.663Z,96031.00
2024-02-17T10:36:11.699Z,96031.00
2024-02-17T10:37:11.620Z,96031.00
2024-02-17T10:38:11.621Z,96031.00
2024-02-17T10:39:11.668Z,96031.00
2024-02-17T10:40:11.739Z,96033.00
2024-02-17T10:41:11.623Z,96035.00
2024-02-17T10:42:11.621Z,96035.00
2024-02-17T10:43:11.620Z,96036.00
2024-02-17T10:44:12.315Z,96034.00
2024-02-17T10:45:11.766Z,96036.00
2024-02-17T10:46:11.737Z,96035.00
2024-02-17T10:47:11.728Z,96035.00
2024-02-17T10:48:11.950Z,96035.00
2024-02-17T10:49:11.712Z,96034.00
2024-02-17T10:50:13.827Z,96035.00
2024-02-17T10:51:11.648Z,96034.00
2024-02-17T10:52:11.640Z,96034.00
2024-02-17T10:53:11.635Z,96032.00
2024-02-17T10:54:11.699Z,96031.00
2024-02-17T10:55:11.646Z,96030.00
2024-02-17T10:56:13.255Z,96031.00
2024-02-17T10:57:11.666Z,96032.00
2024-02-17T10:58:11.707Z,96031.00
2024-02-17T10:59:11.687Z,96032.00
2024-02-17T11:00:11.636Z,96031.00
2024-02-17T11:01:11.732Z,96030.00
2024-02-17T11:02:12.750Z,96029.00
2024-02-17T11:03:11.720Z,96027.00
2024-02-17T11:04:11.736Z,96027.00
2024-02-17T11:05:11.790Z,96025.00
2024-02-17T11:06:11.780Z,96027.00
2024-02-17T11:07:11.676Z,96026.00
2024-02-17T11:08:11.634Z,96028.00
2024-02-17T11:09:12.932Z,96027.00
2024-02-17T11:10:11.638Z,96027.00
2024-02-17T11:11:11.680Z,96025.00
2024-02-17T11:12:11.684Z,96027.00
2024-02-17T11:13:11.654Z,96025.00
2024-02-17T11:14:11.684Z,96026.00
2024-02-17T11:15:11.678Z,96025.00
2024-02-17T11:16:11.831Z,96024.00
2024-02-17T11:17:11.746Z,96026.00
2024-02-17T11:18:11.795Z,96025.00
2024-02-17T11:19:11.905Z,96024.00
2024-02-17T11:20:11.865Z,96025.00
2024-02-17T11:21:11.698Z,96022.00
2024-02-17T11:22:11.816Z,96023.00
2024-02-17T11:23:11.696Z,96024.00
2024-02-17T11:24:12.063Z,96021.00
2024-02-17T11:25:11.723Z,96023.00
2024-02-17T11:26:12.498Z,96022.00
2024-02-17T11:27:11.759Z,96023.00
2024-02-17T11:28:11.652Z,96022.00
2024-02-17T11:29:11.622Z,96020.00
2024-02-17T11:30:11.968Z,96022.00
2024-02-17T11:31:11.838Z,96019.00
2024-02-17T11:32:11.656Z,96020.00
2024-02-17T11:33:11.737Z,96024.00
2024-02-17T11:34:11.804Z,96024.00
2024-02-17T11:35:11.759Z,96023.00
2024-02-17T11:36:12.181Z,96026.00
2024-02-17T11:37:11.780Z,96023.00
2024-02-17T11:38:11.687Z,96021.00
2024-02-17T11:39:13.658Z,96021.00
2024-02-17T11:40:11.763Z,96017.00
2024-02-17T11:41:11.653Z,96018.00
2024-02-17T11:42:11.694Z,96015.00
2024-02-17T11:43:11.671Z,96015.00
2024-02-17T11:44:11.717Z,96016.00
2024-02-17T11:45:11.749Z,96014.00
2024-02-17T11:46:11.669Z,96013.00